Latest Weather Observations for Inner Beacon

IDQ60901

Issued at 11:31 am EST Friday 26 August 2016 (issued every 10 minutes, with the page automatically refreshed every 10 minutes)

About weather observations | Map of Brisbane area stations | Latest observations for Brisbane area | Other Formats
Station Details ID: 040926 Name: INNER RECIPROCAL MARKER Lat: -27.26 Lon: 153.24 Height: 20.0 m
Data from the previous 72 hours. | See also: Recent months for locations in Queensland
Date/Time
EST
Temp
°C
App
Temp
°C
Dew
Point
°C
Rel
Hum
%
Delta-T
°C
Wind Press
QNH
hPa
Press
MSL
hPa
Rain since
9am
mm
Dir  Spd
km/h
Gust
km/h
Spd
kts
Gust
kts
26/11:30am - - - - - SW 13 17 7 9 - - -
26/11:00am - - - - - SSW 15 19 8 10 - - -
26/10:30am - - - - - SSW 17 22 9 12 - - -
26/10:00am - - - - - SW 15 20 8 11 - - -
26/09:30am - - - - - SSW 15 19 8 10 - - -
26/09:00am - - - - - SW 15 19 8 10 - - -
26/08:30am - - - - - WSW 17 20 9 11 - - -
26/08:00am - - - - - WSW 19 24 10 13 - - -
26/07:30am - - - - - WSW 20 24 11 13 - - -
26/07:00am - - - - - WSW 22 26 12 14 - - -
26/06:30am - - - - - WSW 20 24 11 13 - - -
26/06:00am - - - - - WSW 20 24 11 13 - - -
26/05:30am - - - - - WSW 19 22 10 12 - - -
26/05:00am - - - - - WSW 22 26 12 14 - - -
26/04:30am - - - - - WSW 20 24 11 13 - - -
26/04:00am - - - - - WSW 22 26 12 14 - - -
26/03:30am - - - - - WSW 26 32 14 17 - - -
26/03:00am - - - - - WSW 30 35 16 19 - - -
26/02:30am - - - - - WSW 28 33 15 18 - - -
26/02:00am - - - - - SW 28 33 15 18 - - -
26/01:30am - - - - - SW 30 37 16 20 - - -
26/01:00am - - - - - SW 26 33 14 18 - - -
26/12:30am - - - - - WSW 26 30 14 16 - - -
26/12:00am - - - - - WSW 24 30 13 16 - - -
 
Date/Time
EST
Temp
°C
App
Temp
°C
Dew
Point
°C
Rel
Hum
%
Delta-T
°C
Wind Press
QNH
hPa
Press
MSL
hPa
Rain since
9am
mm
Dir  Spd
km/h
Gust
km/h
Spd
kts
Gust
kts
25/11:30pm - - - - - WSW 28 33 15 18 - - -
25/11:00pm - - - - - WSW 28 33 15 18 - - -
25/10:30pm - - - - - WSW 33 39 18 21 - - -
25/10:00pm - - - - - WSW 33 39 18 21 - - -
25/09:30pm - - - - - WSW 33 39 18 21 - - -
25/09:00pm - - - - - WSW 35 41 19 22 - - -
25/08:30pm - - - - - WSW 33 39 18 21 - - -
25/08:00pm - - - - - W 35 41 19 22 - - -
25/07:30pm - - - - - WSW 33 43 18 23 - - -
25/07:00pm - - - - - WSW 37 44 20 24 - - -
25/06:30pm - - - - - W 37 43 20 23 - - -
25/06:00pm - - - - - WSW 35 43 19 23 - - -
25/05:30pm - - - - - W 32 37 17 20 - - -
25/05:00pm - - - - - WSW 32 35 17 19 - - -
25/04:30pm - - - - - WSW 32 37 17 20 - - -
25/04:00pm - - - - - W 28 33 15 18 - - -
25/03:30pm - - - - - WSW 32 35 17 19 - - -
25/03:00pm - - - - - WSW 24 30 13 16 - - -
25/02:30pm - - - - - W 24 32 13 17 - - -
25/02:00pm - - - - - WSW 26 35 14 19 - - -
25/01:30pm - - - - - W 32 37 17 20 - - -
25/01:00pm - - - - - W 37 44 20 24 - - -
25/12:30pm - - - - - WSW 37 43 20 23 - - -
25/12:00pm - - - - - WSW 37 44 20 24 - - -
25/11:30am - - - - - WSW 39 46 21 25 - - -
25/11:00am - - - - - WSW 33 41 18 22 - - -
25/10:30am - - - - - WSW 32 37 17 20 - - -
25/10:00am - - - - - WSW 35 43 19 23 - - -
25/09:30am - - - - - WSW 24 32 13 17 - - -
25/09:00am - - - - - WSW 24 30 13 16 - - -
25/08:30am - - - - - WSW 30 35 16 19 - - -
25/08:00am - - - - - WSW 28 33 15 18 - - -
25/07:30am - - - - - WSW 24 30 13 16 - - -
25/07:00am - - - - - WSW 33 43 18 23 - - -
25/06:30am - - - - - WSW 35 43 19 23 - - -
25/06:00am - - - - - W 39 48 21 26 - - -
25/05:30am - - - - - WSW 35 46 19 25 - - -
25/05:00am - - - - - WSW 35 46 19 25 - - -
25/04:30am - - - - - WSW 39 48 21 26 - - -
25/04:00am - - - - - WSW 35 39 19 21 - - -
25/03:30am - - - - - W 24 30 13 16 - - -
25/03:00am - - - - - W 37 44 20 24 - - -
25/02:30am - - - - - W 33 41 18 22 - - -
25/02:00am - - - - - W 17 26 9 14 - - -
25/01:30am - - - - - WNW 19 24 10 13 - - -
25/01:00am - - - - - NW 26 32 14 17 - - -
25/12:30am - - - - - NNW 28 33 15 18 - - -
25/12:00am - - - - - NNW 28 33 15 18 - - -
 
Date/Time
EST
Temp
°C
App
Temp
°C
Dew
Point
°C
Rel
Hum
%
Delta-T
°C
Wind Press
QNH
hPa
Press
MSL
hPa
Rain since
9am
mm
Dir  Spd
km/h
Gust
km/h
Spd
kts
Gust
kts
24/11:30pm - - - - - NNW 32 37 17 20 - - -
24/11:00pm - - - - - N 30 35 16 19 - - -
24/10:30pm - - - - - N 22 26 12 14 - - -
24/10:00pm - - - - - NW 19 22 10 12 - - -
24/09:30pm - - - - - WNW 11 17 6 9 - - -
24/09:00pm - - - - - NW 22 26 12 14 - - -
24/08:30pm - - - - - NNW 20 24 11 13 - - -
24/08:00pm - - - - - NNE 17 20 9 11 - - -
24/07:30pm - - - - - NE 13 17 7 9 - - -
24/07:00pm - - - - - NE 13 17 7 9 - - -
24/06:30pm - - - - - ENE 7 7 4 4 - - -
24/06:00pm - - - - - SSW 7 13 4 7 - - -
24/05:30pm - - - - - SSW 13 15 7 8 - - -
24/05:00pm - - - - - S 20 24 11 13 - - -
24/04:30pm - - - - - SSW 24 28 13 15 - - -
24/04:00pm - - - - - SSW 22 24 12 13 - - -
24/03:30pm - - - - - SSW 22 24 12 13 - - -
24/03:00pm - - - - - SSW 26 30 14 16 - - -
24/02:30pm - - - - - SSW 32 37 17 20 - - -
24/02:00pm - - - - - SSW 33 37 18 20 - - -
24/01:30pm - - - - - W 20 30 11 16 - - -
24/01:00pm - - - - - SSW 22 28 12 15 - - -
24/12:30pm - - - - - N 20 24 11 13 - - -
24/12:00pm - - - - - N 20 26 11 14 - - -
24/11:30am - - - - - N 24 28 13 15 - - -
24/11:00am - - - - - N 30 33 16 18 - - -
24/10:30am - - - - - N 28 33 15 18 - - -
24/10:00am - - - - - N 26 30 14 16 - - -
24/09:30am - - - - - N 26 30 14 16 - - -
24/09:00am - - - - - N 24 28 13 15 - - -
24/08:30am - - - - - N 22 28 12 15 - - -
24/08:00am - - - - - N 19 20 10 11 - - -
24/07:30am - - - - - N 19 20 10 11 - - -
24/07:00am - - - - - NNW 11 13 6 7 - - -
24/06:30am - - - - - NNW 17 20 9 11 - - -
24/06:00am - - - - - N 15 17 8 9 - - -
24/05:30am - - - - - N 17 20 9 11 - - -
24/05:00am - - - - - N 11 13 6 7 - - -
24/04:30am - - - - - NNW 7 9 4 5 - - -
24/04:00am - - - - - N 11 11 6 6 - - -
24/03:30am - - - - - N 13 15 7 8 - - -
24/03:00am - - - - - NNE 19 20 10 11 - - -
24/02:30am - - - - - NNE 20 24 11 13 - - -
24/02:00am - - - - - N 22 26 12 14 - - -
24/01:30am - - - - - NNE 26 32 14 17 - - -
24/01:00am - - - - - NNE 32 39 17 21 - - -
24/12:30am - - - - - NNE 30 37 16 20 - - -
24/12:00am - - - - - N 32 37 17 20 - - -
 
Date/Time
EST
Temp
°C
App
Temp
°C
Dew
Point
°C
Rel
Hum
%
Delta-T
°C
Wind Press
QNH
hPa
Press
MSL
hPa
Rain since
9am
mm
Dir  Spd
km/h
Gust
km/h
Spd
kts
Gust
kts
23/11:30pm - - - - - N 35 43 19 23 - - -
23/11:00pm - - - - - N 33 44 18 24 - - -
23/10:30pm - - - - - N 30 35 16 19 - - -
23/10:00pm - - - - - N 28 32 15 17 - - -
23/09:30pm - - - - - NNE 30 32 16 17 - - -
23/09:00pm - - - - - NNE 26 30 14 16 - - -
23/08:30pm - - - - - NNE 24 26 13 14 - - -
23/08:00pm - - - - - NNE 26 30 14 16 - - -
23/07:30pm - - - - - NNE 22 26 12 14 - - -
23/07:00pm - - - - - NE 20 22 11 12 - - -
23/06:30pm - - - - - NNE 24 26 13 14 - - -
23/06:00pm - - - - - NNE 26 28 14 15 - - -
23/05:30pm - - - - - NNE 22 24 12 13 - - -
23/05:00pm - - - - - NNE 24 26 13 14 - - -
23/04:30pm - - - - - NNE 26 30 14 16 - - -
23/04:00pm - - - - - NNE 26 30 14 16 - - -
23/03:30pm - - - - - NNE 24 28 13 15 - - -
23/03:00pm - - - - - NNE 28 32 15 17 - - -
23/02:30pm - - - - - NNE 26 28 14 15 - - -
23/02:00pm - - - - - NNE 22 26 12 14 - - -
23/01:30pm - - - - - NNE 22 26 12 14 - - -
23/01:00pm - - - - - NNE 20 24 11 13 - - -
23/12:30pm - - - - - NNE 19 22 10 12 - - -
23/12:00pm - - - - - NNE 19 20 10 11 - - -

Latest Capital City Observations: Canberra | Sydney | Melbourne | Brisbane | Adelaide | Perth | Hobart | Darwin

Other Formats:

Comma delimited format used in spreadsheet applications
http://www.bom.gov.au/fwo/IDQ60901/IDQ60901.94590.axf

JavaScript Object Notation format (JSON) in row-major order
http://www.bom.gov.au/fwo/IDQ60901/IDQ60901.94590.json